Time;durP1;ratioP1;P1;durP2;ratioP2;P2;SDS_P1;SDS_P2;PMS_P1;PMS_P2;Temp;Humidity;BMP_temperature;BMP_pressure;BME280_temperature;BME280_humidity;BME280_pressure;Samples;Min_cycle;Max_cycle;Signal;HPM_P1;HPM_P2
2023/10/22 00:02:10;;;;;;;0.30;0.30;;;16.20;71.70;;;;;;5069207;28;20028;-70
2023/10/22 00:04:38;;;;;;;0.25;0.25;;;16.20;71.70;;;;;;5069159;28;20039;-70
2023/10/22 00:07:04;;;;;;;0.35;0.30;;;16.20;71.80;;;;;;5064536;28;20028;-70
2023/10/22 00:09:30;;;;;;;2.15;0.30;;;16.20;72.20;;;;;;5067479;28;20037;-70
2023/10/22 00:11:56;;;;;;;0.32;0.30;;;16.20;72.30;;;;;;5060887;28;20036;-70
2023/10/22 00:14:21;;;;;;;0.50;0.30;;;16.20;72.80;;;;;;5070629;28;20028;-70
2023/10/22 00:16:47;;;;;;;2.40;0.63;;;16.10;73.10;;;;;;5087215;28;20061;-69
2023/10/22 00:19:13;;;;;;;0.45;0.30;;;16.10;73.40;;;;;;5086896;28;20472;-70
2023/10/22 00:21:38;;;;;;;0.30;0.20;;;16.00;73.70;;;;;;5071368;28;20032;-69
2023/10/22 00:24:04;;;;;;;0.82;0.40;;;16.00;73.70;;;;;;5072939;28;20033;-69
2023/10/22 00:26:30;;;;;;;0.32;0.20;;;16.00;73.70;;;;;;5067657;28;20062;-70
2023/10/22 00:28:56;;;;;;;0.32;0.32;;;16.00;73.70;;;;;;5072867;28;20133;-70
2023/10/22 00:31:21;;;;;;;0.93;0.50;;;16.00;73.60;;;;;;5066507;28;20044;-62
2023/10/22 00:33:47;;;;;;;0.75;0.40;;;16.00;73.60;;;;;;5075383;28;20031;-62
2023/10/22 00:36:13;;;;;;;1.05;0.30;;;16.00;73.60;;;;;;5057774;28;20083;-62
2023/10/22 00:38:38;;;;;;;0.35;0.20;;;16.00;73.60;;;;;;5074624;28;20039;-62
2023/10/22 00:41:04;;;;;;;1.10;0.47;;;16.00;73.70;;;;;;5084590;28;20041;-62
2023/10/22 00:43:30;;;;;;;0.43;0.35;;;16.10;73.80;;;;;;5075189;28;20044;-62
2023/10/22 00:45:56;;;;;;;0.40;0.40;;;16.00;73.70;;;;;;5073571;28;20398;-62
2023/10/22 00:48:22;;;;;;;0.30;0.30;;;16.00;73.60;;;;;;5073276;28;20395;-70
2023/10/22 00:50:48;;;;;;;0.30;0.30;;;16.00;73.60;;;;;;5067675;28;20021;-70
2023/10/22 00:53:16;;;;;;;0.75;0.30;;;16.00;73.60;;;;;;5069978;28;20101;-70
2023/10/22 00:55:47;;;;;;;0.30;0.30;;;16.00;73.50;;;;;;5075384;28;20582;-70
2023/10/22 00:58:14;;;;;;;1.38;0.40;;;16.00;73.60;;;;;;5069195;28;20413;-70
2023/10/22 01:00:41;;;;;;;0.47;0.47;;;16.00;73.40;;;;;;5067019;28;20483;-70
2023/10/22 01:03:07;;;;;;;2.55;0.50;;;16.00;73.60;;;;;;5087057;28;20483;-70
2023/10/22 01:05:37;;;;;;;1.50;0.73;;;16.00;73.50;;;;;;5068516;28;20029;-70
2023/10/22 01:08:06;;;;;;;1.50;0.50;;;16.00;73.70;;;;;;5075398;28;20111;-69
2023/10/22 01:10:32;;;;;;;0.40;0.30;;;16.00;74.00;;;;;;5068251;28;20045;-70
2023/10/22 01:12:59;;;;;;;2.40;0.47;;;15.90;74.40;;;;;;5068030;28;20036;-70
2023/10/22 01:15:26;;;;;;;0.50;0.50;;;15.90;74.70;;;;;;5074301;28;20032;-70
2023/10/22 01:17:52;;;;;;;1.33;0.40;;;15.90;74.90;;;;;;5076933;28;20446;-69
2023/10/22 01:20:17;;;;;;;0.52;0.50;;;15.90;75.00;;;;;;5067568;28;20036;-69
2023/10/22 01:22:43;;;;;;;0.98;0.50;;;15.80;75.20;;;;;;5076126;28;20036;-70
2023/10/22 01:25:09;;;;;;;2.67;0.93;;;15.80;75.30;;;;;;5077440;28;20043;-70
2023/10/22 01:27:35;;;;;;;0.98;0.40;;;15.80;75.30;;;;;;5071540;28;20067;-70
2023/10/22 01:30:01;;;;;;;0.52;0.40;;;15.80;75.40;;;;;;5073157;28;20575;-69
2023/10/22 01:32:30;;;;;;;0.45;0.35;;;15.80;75.70;;;;;;5072699;28;20124;-69
2023/10/22 01:35:00;;;;;;;1.85;0.65;;;15.80;75.70;;;;;;5073245;28;20104;-69
2023/10/22 01:37:26;;;;;;;0.55;0.50;;;15.80;75.80;;;;;;5062107;28;20425;-70
2023/10/22 01:39:52;;;;;;;0.63;0.40;;;15.80;75.90;;;;;;5078204;28;20024;-70
2023/10/22 01:42:18;;;;;;;0.93;0.77;;;15.70;76.00;;;;;;5071011;28;20479;-69
2023/10/22 01:44:44;;;;;;;0.85;0.60;;;15.70;76.10;;;;;;5074218;28;20037;-70
2023/10/22 01:47:11;;;;;;;2.03;0.60;;;15.70;75.90;;;;;;5077708;28;20067;-70
2023/10/22 01:49:37;;;;;;;0.40;0.40;;;15.70;76.00;;;;;;5073433;28;20025;-69
2023/10/22 01:52:03;;;;;;;0.40;0.40;;;15.70;76.00;;;;;;5091867;28;20147;-69
2023/10/22 01:54:29;;;;;;;2.72;0.57;;;15.70;76.00;;;;;;5074091;28;20111;-69
2023/10/22 01:56:54;;;;;;;0.43;0.40;;;15.70;76.20;;;;;;5068664;28;20025;-69
2023/10/22 01:59:20;;;;;;;0.95;0.50;;;15.70;76.20;;;;;;5068234;28;20099;-70
2023/10/22 02:01:46;;;;;;;0.50;0.50;;;15.70;76.00;;;;;;5068484;28;20037;-70
2023/10/22 02:04:12;;;;;;;0.93;0.30;;;15.70;76.00;;;;;;5076488;28;20036;-70
2023/10/22 02:06:37;;;;;;;1.02;0.52;;;15.70;76.10;;;;;;5077145;28;20056;-70
2023/10/22 02:09:03;;;;;;;0.85;0.30;;;15.70;76.50;;;;;;5077811;28;20491;-69
2023/10/22 02:11:30;;;;;;;0.60;0.40;;;15.60;77.00;;;;;;5073009;28;20076;-69
2023/10/22 02:13:56;;;;;;;0.77;0.55;;;15.60;77.00;;;;;;5066022;28;20025;-69
2023/10/22 02:16:22;;;;;;;1.85;0.60;;;15.70;77.20;;;;;;5068473;28;20028;-69
2023/10/22 02:18:48;;;;;;;0.30;0.30;;;15.60;77.40;;;;;;5065994;28;20107;-69
2023/10/22 02:21:15;;;;;;;1.45;0.55;;;15.60;78.00;;;;;;5067333;28;20047;-70
2023/10/22 02:23:41;;;;;;;0.30;0.30;;;15.50;78.30;;;;;;5067159;28;20055;-70
2023/10/22 02:26:07;;;;;;;0.82;0.50;;;15.50;78.50;;;;;;5066707;28;20558;-63
2023/10/22 02:28:33;;;;;;;0.73;0.63;;;15.40;79.20;;;;;;5071249;28;20113;-63
2023/10/22 02:30:59;;;;;;;0.50;0.50;;;15.40;79.50;;;;;;5069552;28;20063;-63
2023/10/22 02:33:24;;;;;;;0.30;0.30;;;15.40;79.60;;;;;;5068218;28;20033;-63
2023/10/22 02:35:51;;;;;;;3.40;0.70;;;15.30;80.10;;;;;;5074023;28;20036;-64
2023/10/22 02:38:17;;;;;;;0.73;0.60;;;15.20;81.00;;;;;;5070484;28;20035;-70
2023/10/22 02:40:48;;;;;;;0.30;0.30;;;15.20;81.50;;;;;;5069015;28;20024;-70
2023/10/22 02:43:14;;;;;;;0.32;0.32;;;15.10;81.60;;;;;;5067607;28;20028;-63
2023/10/22 02:45:53;;;;;;;0.50;0.50;;;15.00;82.40;;;;;;5068786;28;20025;-63
2023/10/22 02:48:20;;;;;;;2.03;0.77;;;14.90;82.60;;;;;;5066227;28;20036;-70
2023/10/22 02:50:46;;;;;;;2.88;0.60;;;14.90;82.80;;;;;;5064299;28;20031;-63
2023/10/22 02:53:12;;;;;;;0.63;0.38;;;14.90;83.10;;;;;;5069015;28;20382;-63
2023/10/22 02:55:38;;;;;;;0.68;0.40;;;14.90;83.50;;;;;;5072249;28;20028;-63
2023/10/22 02:58:05;;;;;;;0.47;0.47;;;14.80;83.40;;;;;;5064738;28;20051;-63
2023/10/22 03:00:32;;;;;;;0.40;0.40;;;14.80;83.40;;;;;;5068186;28;20546;-63
2023/10/22 03:02:58;;;;;;;1.33;0.60;;;14.80;83.80;;;;;;5069066;28;20404;-70
2023/10/22 03:05:24;;;;;;;0.43;0.43;;;14.80;83.80;;;;;;5073983;28;20035;-70
2023/10/22 03:07:50;;;;;;;1.23;0.60;;;14.80;83.70;;;;;;5070717;28;20031;-63
2023/10/22 03:10:16;;;;;;;0.55;0.50;;;14.80;83.80;;;;;;5073016;28;20788;-63
2023/10/22 03:12:42;;;;;;;5.45;0.65;;;14.70;84.00;;;;;;5065104;28;20472;-63
2023/10/22 03:15:08;;;;;;;0.95;0.55;;;14.70;84.00;;;;;;5070460;28;20112;-63
2023/10/22 03:17:34;;;;;;;1.20;0.70;;;14.70;83.90;;;;;;5071946;28;20395;-63
2023/10/22 03:20:00;;;;;;;0.82;0.65;;;14.70;83.90;;;;;;5061412;28;20294;-63
2023/10/22 03:22:25;;;;;;;1.17;0.50;;;14.70;84.50;;;;;;5067091;28;20033;-63
2023/10/22 03:24:51;;;;;;;3.10;0.85;;;14.70;83.80;;;;;;5067135;28;20039;-63
2023/10/22 03:27:18;;;;;;;0.50;0.50;;;14.70;83.70;;;;;;5072089;28;20055;-63
2023/10/22 03:29:44;;;;;;;2.92;0.68;;;14.70;83.60;;;;;;5076235;28;20028;-63
2023/10/22 03:32:10;;;;;;;1.88;0.60;;;14.70;83.70;;;;;;5067721;28;20040;-63
2023/10/22 03:34:36;;;;;;;0.95;0.50;;;14.80;83.90;;;;;;5068179;28;20479;-63
2023/10/22 03:37:04;;;;;;;0.60;0.60;;;14.70;83.80;;;;;;5065814;28;20108;-71
2023/10/22 03:39:33;;;;;;;2.72;0.98;;;14.70;83.90;;;;;;5077267;28;20111;-63
2023/10/22 03:41:59;;;;;;;0.90;0.50;;;14.70;83.90;;;;;;5076897;28;20036;-63
2023/10/22 03:44:25;;;;;;;2.05;1.05;;;14.70;84.00;;;;;;5067305;28;20124;-63
2023/10/22 03:46:50;;;;;;;3.42;0.80;;;14.70;84.10;;;;;;5063808;28;20116;-63
2023/10/22 03:49:16;;;;;;;0.40;0.40;;;14.70;84.30;;;;;;5070604;28;20533;-63
2023/10/22 03:51:42;;;;;;;1.00;0.70;;;14.70;84.40;;;;;;5057434;28;20024;-63
2023/10/22 03:54:08;;;;;;;0.50;0.43;;;14.60;84.60;;;;;;5059735;28;20155;-63
2023/10/22 03:56:50;;;;;;;2.53;0.82;;;14.60;85.00;;;;;;5063394;28;20055;-63
2023/10/22 03:59:17;;;;;;;0.57;0.47;;;14.60;85.10;;;;;;5060434;28;20037;-63
2023/10/22 04:01:42;;;;;;;0.77;0.60;;;14.60;85.20;;;;;;5055352;28;20040;-64
2023/10/22 04:04:08;;;;;;;0.65;0.65;;;14.60;85.30;;;;;;5065058;28;20032;-65
2023/10/22 04:06:34;;;;;;;1.55;0.63;;;14.60;85.30;;;;;;5062413;28;20042;-65
2023/10/22 04:09:00;;;;;;;2.78;0.60;;;14.60;85.60;;;;;;5069744;28;20036;-65
2023/10/22 04:11:25;;;;;;;1.80;1.10;;;14.50;85.80;;;;;;5071594;28;20049;-63
2023/10/22 04:13:51;;;;;;;0.60;0.60;;;14.40;86.10;;;;;;5073054;28;20411;-63
2023/10/22 04:16:17;;;;;;;0.82;0.77;;;14.50;86.20;;;;;;5075074;28;20098;-63
2023/10/22 04:18:43;;;;;;;2.45;1.02;;;14.50;86.20;;;;;;5072697;28;20036;-65
2023/10/22 04:21:15;;;;;;;1.23;0.70;;;14.50;86.30;;;;;;5068948;28;20495;-63
2023/10/22 04:23:41;;;;;;;0.85;0.80;;;14.50;86.50;;;;;;5073645;28;20729;-63
2023/10/22 04:26:16;;;;;;;2.28;0.60;;;14.40;86.50;;;;;;5068223;28;20032;-63
2023/10/22 04:28:47;;;;;;;2.63;1.10;;;14.40;86.50;;;;;;5068563;28;20478;-63
2023/10/22 04:31:13;;;;;;;1.33;1.00;;;14.40;86.70;;;;;;5062754;28;20031;-65
2023/10/22 04:33:39;;;;;;;0.90;0.70;;;14.30;86.90;;;;;;5068280;28;20028;-64
2023/10/22 04:36:04;;;;;;;0.70;0.70;;;14.30;86.90;;;;;;5067614;28;20044;-63
2023/10/22 04:38:31;;;;;;;0.90;0.80;;;14.40;86.70;;;;;;5065479;28;20410;-63
2023/10/22 04:40:57;;;;;;;0.70;0.70;;;14.40;86.40;;;;;;5065502;28;20029;-63
2023/10/22 04:43:23;;;;;;;3.13;0.90;;;14.40;86.20;;;;;;5063729;28;20399;-63
2023/10/22 04:45:49;;;;;;;0.50;0.50;;;14.40;86.10;;;;;;5065964;28;20389;-63
2023/10/22 04:48:15;;;;;;;0.52;0.52;;;14.40;85.90;;;;;;5067678;28;20032;-63
2023/10/22 04:50:42;;;;;;;0.73;0.50;;;14.40;86.20;;;;;;5061877;28;20056;-63
2023/10/22 04:53:08;;;;;;;0.93;0.70;;;14.40;85.80;;;;;;5063542;28;20021;-63
2023/10/22 04:55:34;;;;;;;1.27;1.02;;;14.30;85.90;;;;;;5064289;28;20037;-64
2023/10/22 04:58:02;;;;;;;0.95;0.73;;;14.30;85.90;;;;;;5064841;28;20016;-70
2023/10/22 05:00:27;;;;;;;1.17;0.63;;;14.30;86.00;;;;;;5062729;28;20037;-70
2023/10/22 05:02:53;;;;;;;1.10;1.00;;;14.30;86.10;;;;;;5064380;28;20086;-71
2023/10/22 05:05:20;;;;;;;1.00;0.90;;;14.30;86.10;;;;;;5067386;28;20028;-71
2023/10/22 05:07:49;;;;;;;0.98;0.88;;;14.30;86.00;;;;;;5065723;28;20170;-71
2023/10/22 05:10:16;;;;;;;3.22;0.80;;;14.30;85.80;;;;;;5065703;28;20028;-71
2023/10/22 05:12:42;;;;;;;1.25;0.60;;;14.30;85.70;;;;;;5071540;28;20158;-63
2023/10/22 05:15:08;;;;;;;2.58;0.50;;;14.40;85.60;;;;;;5063281;28;20021;-63
2023/10/22 05:17:34;;;;;;;1.30;0.82;;;14.40;85.50;;;;;;5048919;28;20033;-63
2023/10/22 05:20:00;;;;;;;0.77;0.70;;;14.40;85.40;;;;;;5068901;28;20055;-63
2023/10/22 05:22:25;;;;;;;1.70;0.75;;;14.40;85.40;;;;;;5072192;28;20036;-64
2023/10/22 05:24:51;;;;;;;1.10;0.80;;;14.50;85.30;;;;;;5078079;28;20121;-63
2023/10/22 05:27:17;;;;;;;3.05;1.33;;;14.50;85.40;;;;;;5070664;28;20031;-63
2023/10/22 05:29:43;;;;;;;1.48;0.85;;;14.50;85.90;;;;;;5070751;28;20507;-63
2023/10/22 05:32:09;;;;;;;3.95;2.10;;;14.50;85.30;;;;;;5072065;28;20037;-64
2023/10/22 05:34:35;;;;;;;2.38;1.63;;;14.40;85.30;;;;;;5074430;28;20456;-64
2023/10/22 05:37:00;;;;;;;1.48;1.23;;;14.40;85.40;;;;;;5071362;28;20020;-64
2023/10/22 05:39:26;;;;;;;2.70;1.00;;;14.40;85.40;;;;;;5066142;28;20108;-64
2023/10/22 05:41:51;;;;;;;1.98;1.45;;;14.40;85.50;;;;;;5077497;28;20032;-71
2023/10/22 05:44:19;;;;;;;1.15;0.98;;;14.40;85.50;;;;;;5071383;28;20043;-70
2023/10/22 05:46:44;;;;;;;1.40;1.25;;;14.40;85.40;;;;;;5073187;28;20037;-71
2023/10/22 05:49:11;;;;;;;3.05;1.15;;;14.40;85.40;;;;;;5083466;28;20032;-71
2023/10/22 05:51:38;;;;;;;1.88;1.05;;;14.30;85.40;;;;;;5078329;28;20071;-71
2023/10/22 05:54:04;;;;;;;2.03;1.23;;;14.20;85.70;;;;;;5065349;28;20036;-70
2023/10/22 05:56:33;;;;;;;1.35;0.98;;;14.10;85.80;;;;;;5072053;28;20060;-71
2023/10/22 05:59:00;;;;;;;0.93;0.90;;;14.10;85.80;;;;;;5062451;28;20028;-71
2023/10/22 06:01:26;;;;;;;3.83;1.38;;;14.00;85.90;;;;;;5074502;28;20390;-70
2023/10/22 06:03:51;;;;;;;2.15;1.77;;;13.90;86.10;;;;;;5070269;28;20029;-67
2023/10/22 06:06:21;;;;;;;1.38;1.27;;;13.90;86.30;;;;;;5074044;28;20043;-69
2023/10/22 06:08:47;;;;;;;2.08;1.25;;;13.90;86.30;;;;;;5069013;28;20043;-72
2023/10/22 06:11:14;;;;;;;1.55;0.90;;;13.90;86.40;;;;;;5061469;28;20048;-72
2023/10/22 06:13:39;;;;;;;2.88;1.48;;;13.80;86.50;;;;;;5069642;28;20033;-71
2023/10/22 06:16:05;;;;;;;1.30;1.20;;;13.90;86.40;;;;;;5097302;28;20058;-68
2023/10/22 06:18:31;;;;;;;2.35;1.27;;;13.90;86.40;;;;;;5075897;28;20491;-67
2023/10/22 06:20:56;;;;;;;1.67;1.33;;;13.90;86.40;;;;;;5074192;28;20031;-67
2023/10/22 06:23:22;;;;;;;2.30;1.98;;;14.00;86.40;;;;;;5070174;28;20032;-64
2023/10/22 06:25:48;;;;;;;2.28;1.92;;;14.00;86.40;;;;;;5067872;28;20042;-64
2023/10/22 06:28:14;;;;;;;1.63;1.40;;;14.00;86.40;;;;;;5074045;28;20025;-64
2023/10/22 06:30:40;;;;;;;2.40;1.48;;;13.90;86.30;;;;;;5081720;28;20032;-64
2023/10/22 06:33:06;;;;;;;2.30;1.67;;;14.00;86.40;;;;;;5075577;28;20545;-64
2023/10/22 06:35:32;;;;;;;6.00;2.08;;;13.90;86.40;;;;;;5077327;28;20032;-64
2023/10/22 06:37:58;;;;;;;2.58;1.20;;;13.90;86.50;;;;;;5069960;28;20030;-64
2023/10/22 06:40:24;;;;;;;1.70;1.15;;;14.00;86.50;;;;;;5078596;28;20028;-64
2023/10/22 06:42:50;;;;;;;1.83;0.93;;;14.00;86.40;;;;;;5078529;28;20058;-64
2023/10/22 06:45:16;;;;;;;1.73;1.48;;;14.00;86.30;;;;;;5069535;28;20032;-64
2023/10/22 06:47:42;;;;;;;2.55;1.45;;;14.00;86.80;;;;;;5063157;28;20043;-64
2023/10/22 06:50:11;;;;;;;2.28;1.80;;;14.10;86.10;;;;;;5059137;28;20044;-64
2023/10/22 06:52:37;;;;;;;1.70;1.50;;;14.10;85.90;;;;;;5068907;28;20035;-64
2023/10/22 06:55:03;;;;;;;5.40;1.88;;;14.10;85.90;;;;;;5088124;28;20057;-64
2023/10/22 06:57:29;;;;;;;1.75;1.30;;;14.10;86.00;;;;;;5068940;28;20028;-64
2023/10/22 06:59:57;;;;;;;2.35;1.10;;;14.20;86.10;;;;;;5073559;28;20039;-64
2023/10/22 07:02:23;;;;;;;3.03;1.52;;;14.20;86.10;;;;;;5067664;28;20021;-64
2023/10/22 07:04:52;;;;;;;1.95;1.70;;;14.30;85.90;;;;;;5073269;28;20047;-64
2023/10/22 07:07:18;;;;;;;3.83;2.33;;;14.30;85.80;;;;;;5073668;28;20029;-64
2023/10/22 07:09:44;;;;;;;3.30;1.67;;;14.40;85.70;;;;;;5073130;28;20028;-64
2023/10/22 07:12:09;;;;;;;2.55;1.83;;;14.30;85.60;;;;;;5073051;28;20396;-64
2023/10/22 07:14:35;;;;;;;2.10;1.58;;;14.40;85.40;;;;;;5079022;28;20024;-70
2023/10/22 07:17:01;;;;;;;2.42;2.20;;;14.40;85.50;;;;;;5067158;28;20032;-70
2023/10/22 07:19:27;;;;;;;2.63;1.45;;;14.40;85.40;;;;;;5064960;28;20103;-70
2023/10/22 07:21:52;;;;;;;2.42;1.20;;;14.50;85.10;;;;;;5071475;28;20111;-70
2023/10/22 07:24:18;;;;;;;1.92;1.60;;;14.50;85.10;;;;;;5071468;28;20096;-70
2023/10/22 07:26:44;;;;;;;2.08;1.27;;;14.50;84.90;;;;;;5069335;28;20105;-71
2023/10/22 07:29:12;;;;;;;1.65;1.38;;;14.50;84.80;;;;;;5068048;28;20122;-71
2023/10/22 07:31:38;;;;;;;1.65;1.30;;;14.50;84.90;;;;;;5051321;28;20029;-72
2023/10/22 07:34:04;;;;;;;1.60;1.30;;;14.50;84.80;;;;;;5057009;28;20032;-68
2023/10/22 07:36:29;;;;;;;1.70;1.13;;;14.50;84.40;;;;;;5067697;28;20468;-69
2023/10/22 07:38:55;;;;;;;2.10;1.15;;;14.40;84.40;;;;;;5062710;28;20032;-69
2023/10/22 07:41:20;;;;;;;1.75;1.33;;;14.50;84.80;;;;;;5068061;28;20140;-69
2023/10/22 07:43:47;;;;;;;1.40;1.05;;;14.50;84.20;;;;;;5065878;28;20040;-69
2023/10/22 07:46:15;;;;;;;1.15;1.10;;;14.50;83.90;;;;;;5067793;28;20032;-69
2023/10/22 07:48:41;;;;;;;1.88;1.35;;;14.50;83.80;;;;;;5066635;28;20020;-69
2023/10/22 07:51:11;;;;;;;2.45;1.17;;;14.40;83.70;;;;;;5063380;28;20020;-69
2023/10/22 07:53:38;;;;;;;1.60;1.27;;;14.50;83.70;;;;;;5066776;28;20028;-69
2023/10/22 07:56:08;;;;;;;3.25;0.95;;;14.40;83.70;;;;;;5069516;28;20482;-68
2023/10/22 07:58:35;;;;;;;2.80;1.85;;;14.40;83.80;;;;;;5063966;28;20029;-63
2023/10/22 08:01:01;;;;;;;1.52;0.88;;;14.40;83.30;;;;;;5069452;28;20111;-63
2023/10/22 08:03:30;;;;;;;26.00;1.52;;;14.40;83.50;;;;;;5067129;28;21007;-64
2023/10/22 08:06:00;;;;;;;1.95;1.48;;;14.40;83.40;;;;;;5064262;28;20032;-62
2023/10/22 08:08:26;;;;;;;1.67;1.17;;;14.40;83.60;;;;;;5066035;28;20025;-62
2023/10/22 08:10:57;;;;;;;12.45;1.95;;;14.50;83.50;;;;;;5067383;28;20056;-62
2023/10/22 08:13:23;;;;;;;1.83;1.00;;;14.50;83.30;;;;;;5068113;28;20032;-63
2023/10/22 08:15:49;;;;;;;1.30;1.20;;;14.60;83.40;;;;;;5063276;28;20400;-63
2023/10/22 08:18:15;;;;;;;1.23;1.00;;;14.60;83.20;;;;;;5071132;28;20410;-62
2023/10/22 08:20:41;;;;;;;4.68;1.27;;;14.70;83.10;;;;;;5067040;28;20031;-62
2023/10/22 08:23:07;;;;;;;1.60;0.93;;;14.80;83.00;;;;;;5078116;28;20041;-63
2023/10/22 08:25:33;;;;;;;3.47;1.38;;;14.80;82.80;;;;;;5067951;28;20024;-63
2023/10/22 08:27:59;;;;;;;0.93;0.70;;;14.80;82.60;;;;;;5067640;28;20037;-65
2023/10/22 08:30:24;;;;;;;0.80;0.75;;;14.80;82.40;;;;;;5062786;28;20029;-63
2023/10/22 08:32:51;;;;;;;1.90;1.35;;;14.80;82.50;;;;;;5063557;28;20464;-63
2023/10/22 08:35:16;;;;;;;2.42;1.23;;;14.80;82.20;;;;;;5063488;28;20437;-62
2023/10/22 08:37:44;;;;;;;1.95;1.20;;;14.80;82.10;;;;;;5073855;28;20020;-63
2023/10/22 08:40:10;;;;;;;0.68;0.52;;;14.80;82.00;;;;;;5082671;28;20039;-63
2023/10/22 08:42:37;;;;;;;0.90;0.90;;;14.80;82.10;;;;;;5075504;28;20369;-63
2023/10/22 08:45:04;;;;;;;0.63;0.57;;;14.90;82.20;;;;;;5047605;28;20033;-63
2023/10/22 08:47:30;;;;;;;0.85;0.85;;;15.00;82.10;;;;;;5057285;28;20521;-63
2023/10/22 08:49:56;;;;;;;1.33;1.00;;;15.10;81.50;;;;;;5064907;28;20074;-63
2023/10/22 08:52:23;;;;;;;2.05;0.85;;;15.10;81.30;;;;;;5059177;28;20033;-63
2023/10/22 08:54:49;;;;;;;1.65;1.00;;;15.10;81.00;;;;;;5067633;28;20028;-63
2023/10/22 08:57:16;;;;;;;0.90;0.52;;;15.10;81.30;;;;;;5068435;28;20028;-63
2023/10/22 08:59:44;;;;;;;0.70;0.50;;;15.10;81.40;;;;;;5070039;28;20048;-63
2023/10/22 09:02:11;;;;;;;0.47;0.43;;;15.20;81.30;;;;;;5066056;28;20028;-63
2023/10/22 09:04:40;;;;;;;3.10;0.85;;;15.20;81.40;;;;;;5071492;28;20029;-63
2023/10/22 09:07:06;;;;;;;1.60;0.73;;;15.20;81.40;;;;;;5082598;28;20062;-63
2023/10/22 09:09:37;;;;;;;0.57;0.57;;;15.20;81.10;;;;;;5068005;28;20032;-63
2023/10/22 09:12:04;;;;;;;2.10;0.50;;;15.20;81.20;;;;;;5070015;28;20047;-63
2023/10/22 09:14:30;;;;;;;0.50;0.50;;;15.20;81.20;;;;;;5071782;28;20028;-63
2023/10/22 09:16:56;;;;;;;0.60;0.50;;;15.20;81.00;;;;;;5061865;28;20048;-69
2023/10/22 09:19:39;;;;;;;3.65;0.60;;;15.20;81.40;;;;;;5060590;28;20017;-69
2023/10/22 09:22:05;;;;;;;1.83;0.50;;;15.30;81.20;;;;;;5067603;28;20131;-63
2023/10/22 09:24:48;;;;;;;1.33;0.73;;;15.30;81.20;;;;;;5063857;28;20102;-63
2023/10/22 09:27:25;;;;;;;0.82;0.75;;;15.30;81.10;;;;;;5059946;28;20650;-63
2023/10/22 09:29:52;;;;;;;2.33;0.70;;;15.40;80.50;;;;;;5063317;28;20081;-63
2023/10/22 09:32:19;;;;;;;1.00;0.60;;;15.30;80.70;;;;;;5065072;28;20639;-64
2023/10/22 09:34:45;;;;;;;1.00;0.55;;;15.40;80.70;;;;;;5068876;28;20044;-63
2023/10/22 09:37:11;;;;;;;0.85;0.80;;;15.50;80.40;;;;;;5073945;28;20024;-70
2023/10/22 09:39:43;;;;;;;0.85;0.70;;;15.50;80.00;;;;;;5066816;28;20025;-70
2023/10/22 09:42:10;;;;;;;1.40;0.95;;;15.60;80.10;;;;;;5072437;28;20444;-70
2023/10/22 09:44:37;;;;;;;0.68;0.65;;;15.70;80.20;;;;;;5068640;28;20107;-63
2023/10/22 09:47:07;;;;;;;2.00;0.40;;;15.80;79.80;;;;;;5071790;28;20044;-63
2023/10/22 09:49:35;;;;;;;2.75;0.70;;;15.90;79.70;;;;;;5069493;28;20495;-63
2023/10/22 09:52:03;;;;;;;0.47;0.47;;;15.90;79.60;;;;;;5071632;28;20446;-63
2023/10/22 09:54:39;;;;;;;0.93;0.55;;;15.90;79.60;;;;;;5068181;28;20033;-70
2023/10/22 09:57:13;;;;;;;2.92;0.90;;;16.10;79.50;;;;;;5059676;28;20056;-70
2023/10/22 09:59:40;;;;;;;1.83;0.65;;;16.20;78.90;;;;;;5063415;28;20436;-70
2023/10/22 10:02:16;;;;;;;2.10;0.80;;;16.30;78.60;;;;;;5054869;28;20114;-70
2023/10/22 10:04:47;;;;;;;0.50;0.40;;;16.40;78.50;;;;;;5061746;28;20031;-64
2023/10/22 10:07:13;;;;;;;2.72;0.80;;;16.50;78.70;;;;;;5056371;28;20033;-64
2023/10/22 10:09:41;;;;;;;2.78;0.90;;;16.60;78.80;;;;;;5067862;28;20024;-64
2023/10/22 10:12:14;;;;;;;0.98;0.70;;;16.60;78.20;;;;;;5053867;28;20379;-63
2023/10/22 10:14:44;;;;;;;2.00;1.08;;;16.60;78.00;;;;;;5061828;28;20032;-64
2023/10/22 10:17:10;;;;;;;0.50;0.50;;;16.50;77.40;;;;;;5059894;28;20042;-63
2023/10/22 10:19:37;;;;;;;2.25;0.52;;;16.50;77.70;;;;;;5061426;28;20495;-64
2023/10/22 10:22:03;;;;;;;0.98;0.70;;;16.60;78.00;;;;;;5061669;28;20132;-64
2023/10/22 10:24:31;;;;;;;1.35;0.50;;;16.70;77.20;;;;;;5063026;28;20418;-64
2023/10/22 10:26:56;;;;;;;0.90;0.85;;;16.70;77.10;;;;;;5064102;28;20024;-64
2023/10/22 10:29:32;;;;;;;0.65;0.63;;;16.80;76.80;;;;;;5064487;28;20039;-64
2023/10/22 10:32:13;;;;;;;1.13;0.80;;;16.90;76.80;;;;;;5061413;28;20029;-64
2023/10/22 10:34:44;;;;;;;1.20;0.50;;;17.20;76.30;;;;;;5078615;28;20032;-64
2023/10/22 10:37:12;;;;;;;0.55;0.55;;;17.30;76.10;;;;;;5060818;28;20543;-64
2023/10/22 10:39:53;;;;;;;1.00;0.90;;;17.50;75.60;;;;;;5055508;28;20037;-64
2023/10/22 10:42:31;;;;;;;1.50;0.80;;;17.60;74.70;;;;;;5062575;28;20487;-70
2023/10/22 10:47:22;;;;;;;1.80;0.93;;;17.20;71.80;;;;;;5063827;28;20492;-70
2023/10/22 10:50:10;;;;;;;1.10;0.77;;;17.10;72.30;;;;;;5070168;28;20123;-64
2023/10/22 10:52:48;;;;;;;1.50;0.85;;;17.10;72.90;;;;;;5068611;28;20153;-64
2023/10/22 10:55:19;;;;;;;1.17;0.90;;;17.20;73.20;;;;;;5071899;28;20364;-64
2023/10/22 10:57:48;;;;;;;2.38;1.05;;;17.20;72.90;;;;;;5067448;28;20028;-64
2023/10/22 11:00:21;;;;;;;2.90;1.02;;;17.20;73.20;;;;;;5060798;28;20452;-64
2023/10/22 11:02:52;;;;;;;0.65;0.65;;;17.40;72.10;;;;;;5060857;28;20040;-63
2023/10/22 11:05:30;;;;;;;0.40;0.40;;;17.40;70.40;;;;;;5062219;28;20101;-64
2023/10/22 11:07:56;;;;;;;0.50;0.50;;;17.30;70.50;;;;;;5069057;28;20378;-64
2023/10/22 11:10:22;;;;;;;0.35;0.35;;;17.20;70.80;;;;;;5068283;28;20082;-63
2023/10/22 11:12:49;;;;;;;0.93;0.75;;;17.30;71.30;;;;;;5065988;28;20522;-64
2023/10/22 11:15:16;;;;;;;0.75;0.47;;;17.30;70.70;;;;;;5060194;28;20035;-63
2023/10/22 11:17:42;;;;;;;0.30;0.30;;;17.50;71.10;;;;;;5061915;28;21747;-63
2023/10/22 11:20:18;;;;;;;1.20;0.60;;;17.60;70.50;;;;;;5059454;28;20476;-63
2023/10/22 11:22:44;;;;;;;1.10;0.68;;;17.60;70.50;;;;;;5066394;28;20016;-63
2023/10/22 11:25:10;;;;;;;0.50;0.50;;;17.70;69.60;;;;;;5065079;28;20569;-63
2023/10/22 11:27:37;;;;;;;0.45;0.45;;;17.60;69.60;;;;;;5062070;28;20029;-63
2023/10/22 11:30:06;;;;;;;1.95;0.40;;;17.60;69.60;;;;;;5065836;28;20120;-63
2023/10/22 11:32:38;;;;;;;0.90;0.55;;;17.60;70.10;;;;;;5060769;28;20033;-63
2023/10/22 11:35:07;;;;;;;0.65;0.35;;;17.70;70.30;;;;;;5064785;28;20043;-63
2023/10/22 11:37:52;;;;;;;0.75;0.60;;;17.80;69.90;;;;;;5066995;28;20028;-63
2023/10/22 11:40:26;;;;;;;0.60;0.40;;;17.80;69.40;;;;;;5055243;28;20029;-63
2023/10/22 11:42:52;;;;;;;0.50;0.50;;;17.70;69.30;;;;;;5052091;28;20035;-70
2023/10/22 11:45:18;;;;;;;1.20;0.57;;;17.70;69.80;;;;;;5055226;28;20037;-70
2023/10/22 11:47:43;;;;;;;0.82;0.60;;;17.70;70.00;;;;;;5054069;28;20036;-70
2023/10/22 11:50:09;;;;;;;0.68;0.68;;;17.70;69.80;;;;;;5054573;28;20028;-64
2023/10/22 11:52:35;;;;;;;0.77;0.70;;;17.80;69.60;;;;;;5055892;28;20265;-64
2023/10/22 11:55:10;;;;;;;1.75;0.77;;;17.80;69.70;;;;;;5072969;28;20024;-64
2023/10/22 11:57:37;;;;;;;1.55;0.50;;;17.90;69.70;;;;;;5059097;28;20046;-64
2023/10/22 12:00:04;;;;;;;0.40;0.40;;;17.90;69.10;;;;;;5055388;28;20031;-63
2023/10/22 12:02:30;;;;;;;0.55;0.55;;;18.00;68.50;;;;;;5063821;28;20039;-64
2023/10/22 12:04:56;;;;;;;1.77;0.82;;;17.80;68.20;;;;;;5067308;28;20028;-64
2023/10/22 12:07:22;;;;;;;4.93;0.50;;;17.80;68.40;;;;;;5064253;28;20582;-63
2023/10/22 12:09:48;;;;;;;0.65;0.65;;;17.80;69.20;;;;;;5076161;28;20025;-63
2023/10/22 12:12:13;;;;;;;1.15;0.95;;;17.80;69.20;;;;;;5074597;28;20097;-63
2023/10/22 12:14:39;;;;;;;0.55;0.50;;;17.80;68.90;;;;;;5055801;28;20037;-63
2023/10/22 12:17:05;;;;;;;1.40;0.60;;;17.90;68.00;;;;;;5063733;28;20040;-63
2023/10/22 12:19:31;;;;;;;1.85;1.10;;;17.80;68.20;;;;;;5054603;28;20040;-63
2023/10/22 12:21:57;;;;;;;0.75;0.63;;;17.80;68.80;;;;;;5057961;28;20036;-62
2023/10/22 12:24:22;;;;;;;2.22;0.90;;;17.80;67.60;;;;;;5059172;28;20044;-62
2023/10/22 12:26:48;;;;;;;0.70;0.70;;;17.70;68.20;;;;;;5064769;28;20025;-63
2023/10/22 12:29:14;;;;;;;0.90;0.88;;;17.70;67.90;;;;;;5072315;28;20036;-63
2023/10/22 12:31:41;;;;;;;1.13;0.70;;;17.90;68.20;;;;;;5074765;28;20036;-63
2023/10/22 12:34:07;;;;;;;0.70;0.70;;;18.10;67.70;;;;;;5073178;28;20036;-63
2023/10/22 12:36:33;;;;;;;0.55;0.55;;;18.20;67.60;;;;;;5088492;28;20063;-63
2023/10/22 12:38:58;;;;;;;1.35;0.85;;;18.50;67.40;;;;;;5070602;28;20150;-63
2023/10/22 12:41:24;;;;;;;0.73;0.50;;;18.50;67.00;;;;;;5065912;28;20043;-63
2023/10/22 12:43:50;;;;;;;0.47;0.47;;;18.40;67.00;;;;;;5067389;28;20060;-63
2023/10/22 12:46:17;;;;;;;4.50;0.93;;;18.70;66.20;;;;;;5071862;28;20017;-63
2023/10/22 12:48:43;;;;;;;0.85;0.85;;;18.70;64.10;;;;;;5072767;28;20107;-63
2023/10/22 12:51:08;;;;;;;5.22;0.50;;;18.40;64.20;;;;;;5073077;28;20566;-63